Welcome to Northern Hawkes Bay. New Zealand.
PWS Header
      nz Flag



Hit Counter


W3C Valid W3C Valid logo


    Wairoa

Select any of the Stations below to visit their websites.










Historic Data from Weather Underground
Select the location of interest below. Wairoa is the default. Please have patience, this Data is slow to load in.
Northern Hawkes Bay Historical Data
Daily Summary for June 18, 2017 Units:  Metric    English   Both
« Previous Day
Next Day »
Daily Weekly Monthly Yearly Custom
  High: Low: Average:
Temperature: 18.7 °C 7.0 °C 11.1 °C
Dew Point: 11.9 °C 6.6 °C 8.7 °C
Humidity: 99% 59% 87%
Wind Speed: 12.2km/h 0.0km/h 5km/h
Wind Gust: 19.5km/h - -
Wind- - WSW
Pressure: 1031.4 hPa 1028.3 hPa -
Precipitation: 0.0 mm    
Historical Graphs
 
 
Tabular Data for June 18, 2017
Time Temperature Dew Point Pressure Wind Wind Speed Wind Gust Humidity Rainfall Rate (Hourly) solar
00:00 8.2 °C 8.1 °C 1031.4 hPa NNW 5.0 km/h 7.2 km/h 99% 0.0 mm 0 W/m2
00:05 8.2 °C 8.1 °C 1031.0 hPa North 3.5 km/h 8.7 km/h 99% 0.0 mm 0 W/m2
00:10 8.3 °C 8.2 °C 1031.0 hPa North 3.5 km/h 8.7 km/h 99% 0.0 mm 0 W/m2
00:15 8.3 °C 8.2 °C 1031.0 hPa North 2.6 km/h 7.2 km/h 99% 0.0 mm 0 W/m2
00:20 8.3 °C 8.2 °C 1031.0 hPa NNW 1.1 km/h 7.2 km/h 99% 0.0 mm 0 W/m2
00:25 8.3 °C 8.2 °C 1031.0 hPa North 1.1 km/h 3.5 km/h 99% 0.0 mm 0 W/m2
00:30 8.3 °C 8.2 °C 1031.0 hPa NNW 5.0 km/h 6.1 km/h 99% 0.0 mm 0 W/m2
00:35 8.2 °C 8.1 °C 1030.7 hPa NNW 5.0 km/h 7.2 km/h 99% 0.0 mm 0 W/m2
00:40 8.3 °C 8.2 °C 1030.7 hPa NNW 3.5 km/h 7.2 km/h 99% 0.0 mm 0 W/m2
00:45 8.4 °C 8.3 °C 1030.7 hPa NNW 6.1 km/h 9.7 km/h 99% 0.0 mm 0 W/m2
00:50 8.3 °C 8.2 °C 1031.0 hPa NNW 1.1 km/h 9.7 km/h 99% 0.0 mm 0 W/m2
00:55 8.3 °C 8.2 °C 1031.0 hPa North 1.1 km/h 9.7 km/h 99% 0.0 mm 0 W/m2
01:00 8.3 °C 8.2 °C 1030.7 hPa North 5.0 km/h 7.2 km/h 99% 0.0 mm 0 W/m2
01:05 8.3 °C 8.2 °C 1030.7 hPa North 2.6 km/h 7.2 km/h 99% 0.0 mm 0 W/m2
01:10 8.4 °C 8.3 °C 1030.7 hPa NNW 3.5 km/h 7.2 km/h 99% 0.0 mm 0 W/m2
01:15 8.4 °C 8.3 °C 1030.7 hPa NNW 5.0 km/h 8.7 km/h 99% 0.0 mm 0 W/m2
01:20 8.3 °C 8.2 °C 1030.7 hPa NNW 5.0 km/h 8.7 km/h 99% 0.0 mm 0 W/m2
01:25 8.3 °C 8.2 °C 1031.0 hPa NW 6.1 km/h 8.7 km/h 99% 0.0 mm 0 W/m2
01:30 8.2 °C 8.1 °C 1031.0 hPa NNW 7.2 km/h 12.2 km/h 99% 0.0 mm 0 W/m2
01:35 8.2 °C 8.1 °C 1031.0 hPa NNW 7.2 km/h 12.2 km/h 99% 0.0 mm 0 W/m2
01:40 8.2 °C 8.1 °C 1031.0 hPa NNW 6.1 km/h 9.7 km/h 99% 0.0 mm 0 W/m2
01:45 8.2 °C 8.1 °C 1030.7 hPa NNW 5.0 km/h 9.7 km/h 99% 0.0 mm 0 W/m2
01:50 8.3 °C 8.2 °C 1030.7 hPa NNW 2.6 km/h 8.7 km/h 99% 0.0 mm 0 W/m2
01:55 8.3 °C 8.2 °C 1030.7 hPa North 2.6 km/h 7.2 km/h 99% 0.0 mm 0 W/m2
01:57 8.3 °C 8.2 °C 1031.0 hPa North 3.5 km/h 7.2 km/h 99% 0.0 mm 0 W/m2
02:02 8.2 °C 8.1 °C 1031.0 hPa NNW 2.6 km/h 6.1 km/h 99% 0.0 mm 0 W/m2
02:07 8.2 °C 8.1 °C 1030.7 hPa NNW 5.0 km/h 6.1 km/h 99% 0.0 mm 0 W/m2
02:12 8.1 °C 7.9 °C 1030.7 hPa NNW 3.5 km/h 6.1 km/h 99% 0.0 mm 0 W/m2
02:17 8.1 °C 7.9 °C 1030.7 hPa NNW 2.6 km/h 6.1 km/h 99% 0.0 mm 0 W/m2
02:22 8.1 °C 7.9 °C 1031.0 hPa NNW 2.6 km/h 6.1 km/h 99% 0.0 mm 0 W/m2
02:27 8.2 °C 8.1 °C 1030.7 hPa NNE 3.5 km/h 6.1 km/h 99% 0.0 mm 0 W/m2
02:32 8.2 °C 8.1 °C 1030.7 hPa North 2.6 km/h 6.1 km/h 99% 0.0 mm 0 W/m2
02:37 8.2 °C 8.1 °C 1030.4 hPa NNW 3.5 km/h 6.1 km/h 99% 0.0 mm 0 W/m2
02:42 8.1 °C 7.9 °C 1030.4 hPa NW 6.1 km/h 8.7 km/h 99% 0.0 mm 0 W/m2
02:47 8.1 °C 7.9 °C 1030.7 hPa NNW 5.0 km/h 8.7 km/h 99% 0.0 mm 0 W/m2
02:52 8.1 °C 7.9 °C 1030.4 hPa NNW 6.1 km/h 8.7 km/h 99% 0.0 mm 0 W/m2
02:57 8.0 °C 7.8 °C 1030.4 hPa NNW 6.1 km/h 8.7 km/h 99% 0.0 mm 0 W/m2
03:02 7.9 °C 7.4 °C 1030.4 hPa NNW 6.1 km/h 8.7 km/h 97% 0.0 mm 0 W/m2
03:07 7.9 °C 7.4 °C 1030.4 hPa NNW 5.0 km/h 11.1 km/h 97% 0.0 mm 0 W/m2
03:12 7.8 °C 7.3 °C 1030.4 hPa NNW 2.6 km/h 11.1 km/h 97% 0.0 mm 0 W/m2
03:17 7.8 °C 7.3 °C 1030.4 hPa NNW 3.5 km/h 8.7 km/h 97% 0.0 mm 0 W/m2
03:22 7.7 °C 7.3 °C 1030.4 hPa North 5.0 km/h 7.2 km/h 97% 0.0 mm 0 W/m2
03:27 7.7 °C 7.3 °C 1030.4 hPa NNE 3.5 km/h 7.2 km/h 97% 0.0 mm 0 W/m2
03:32 7.6 °C 7.2 °C 1030.4 hPa North 3.5 km/h 7.2 km/h 97% 0.0 mm 0 W/m2
03:37 7.5 °C 7.1 °C 1030.4 hPa NNW 2.6 km/h 5.0 km/h 97% 0.0 mm 0 W/m2
03:42 7.4 °C 6.9 °C 1030.4 hPa NNW 3.5 km/h 5.0 km/h 97% 0.0 mm 0 W/m2
03:47 7.3 °C 6.8 °C 1030.4 hPa North 2.6 km/h 6.1 km/h 97% 0.0 mm 0 W/m2
03:52 7.1 °C 6.7 °C 1030.4 hPa NNW 2.6 km/h 6.1 km/h 97% 0.0 mm 0 W/m2
03:57 7.1 °C 6.7 °C 1030.4 hPa NNW 2.6 km/h 6.1 km/h 97% 0.0 mm 0 W/m2
04:02 7.2 °C 6.8 °C 1030.0 hPa NNW 3.5 km/h 6.1 km/h 97% 0.0 mm 0 W/m2
04:07 7.2 °C 6.8 °C 1030.4 hPa NNW 1.1 km/h 6.1 km/h 97% 0.0 mm 0 W/m2
04:12 7.2 °C 6.8 °C 1030.4 hPa NNW 2.6 km/h 6.1 km/h 97% 0.0 mm 0 W/m2
04:17 7.2 °C 6.8 °C 1030.4 hPa NW 2.6 km/h 5.0 km/h 97% 0.0 mm 0 W/m2
04:22 7.2 °C 6.8 °C 1030.4 hPa NW 2.6 km/h 5.0 km/h 97% 0.0 mm 0 W/m2
04:27 7.2 °C 6.8 °C 1030.4 hPa NW 2.6 km/h 5.0 km/h 97% 0.0 mm 0 W/m2
04:32 7.2 °C 6.8 °C 1030.4 hPa NW 2.6 km/h 5.0 km/h 97% 0.0 mm 0 W/m2
04:37 7.2 °C 6.8 °C 1030.4 hPa NNW 2.6 km/h 7.2 km/h 97% 0.0 mm 0 W/m2
04:43 7.2 °C 6.8 °C 1030.4 hPa North 2.6 km/h 7.2 km/h 97% 0.0 mm 0 W/m2
04:48 7.2 °C 6.8 °C 1030.0 hPa North 3.5 km/h 8.7 km/h 97% 0.0 mm 0 W/m2
04:53 7.3 °C 6.8 °C 1030.0 hPa NNW 5.0 km/h 8.7 km/h 97% 0.0 mm 0 W/m2
04:58 7.3 °C 6.8 °C 1030.0 hPa NW 5.0 km/h 9.7 km/h 97% 0.0 mm 0 W/m2
05:03 7.4 °C 6.9 °C 1030.0 hPa NNW 5.0 km/h 9.7 km/h 97% 0.0 mm 0 W/m2
05:08 7.4 °C 6.9 °C 1030.4 hPa NNW 7.2 km/h 11.1 km/h 97% 0.0 mm 0 W/m2
05:13 7.4 °C 6.9 °C 1030.4 hPa NNW 5.0 km/h 12.2 km/h 97% 0.0 mm 0 W/m2
05:18 7.3 °C 6.8 °C 1030.0 hPa NNW 3.5 km/h 12.2 km/h 97% 0.0 mm 0 W/m2
05:23 7.2 °C 6.8 °C 1030.0 hPa North 7.2 km/h 9.7 km/h 97% 0.0 mm 0 W/m2
05:28 7.2 °C 6.8 °C 1030.0 hPa NNW 8.7 km/h 11.1 km/h 97% 0.0 mm 0 W/m2
05:33 7.2 °C 6.8 °C 1030.0 hPa NNW 11.1 km/h 15.8 km/h 97% 0.0 mm 0 W/m2
05:38 7.2 °C 6.8 °C 1030.0 hPa NNW 7.2 km/h 15.8 km/h 97% 0.0 mm 0 W/m2
05:43 7.2 °C 6.8 °C 1030.0 hPa NNW 6.1 km/h 15.8 km/h 97% 0.0 mm 0 W/m2
05:48 7.1 °C 6.7 °C 1030.4 hPa NNW 3.5 km/h 12.2 km/h 97% 0.0 mm 0 W/m2
05:53 7.1 °C 6.7 °C 1030.0 hPa NNW 3.5 km/h 9.7 km/h 97% 0.0 mm 0 W/m2
05:58 7.1 °C 6.7 °C 1030.4 hPa NNW 8.7 km/h 9.7 km/h 97% 0.0 mm 0 W/m2
06:03 7.1 °C 6.7 °C 1030.4 hPa NNW 8.7 km/h 11.1 km/h 97% 0.0 mm 0 W/m2
06:08 7.1 °C 6.7 °C 1030.4 hPa NNW 7.2 km/h 11.1 km/h 97% 0.0 mm 0 W/m2
06:13 7.1 °C 6.7 °C 1030.4 hPa NNW 7.2 km/h 11.1 km/h 97% 0.0 mm 0 W/m2
06:18 7.2 °C 6.8 °C 1030.0 hPa NNW 5.0 km/h 11.1 km/h 97% 0.0 mm 0 W/m2
06:21 7.2 °C 6.8 °C 1030.0 hPa NNW 7.2 km/h 9.7 km/h 97% 0.0 mm 0 W/m2
06:26 7.2 °C 6.8 °C 1030.4 hPa NNW 7.2 km/h 9.7 km/h 97% 0.0 mm 0 W/m2
06:31 7.3 °C 6.8 °C 1030.0 hPa NW 6.1 km/h 9.7 km/h 97% 0.0 mm 0 W/m2
06:36 7.2 °C 6.8 °C 1030.0 hPa NW 7.2 km/h 11.1 km/h 97% 0.0 mm 0 W/m2
06:41 7.1 °C 6.7 °C 1030.4 hPa NW 6.1 km/h 11.1 km/h 97% 0.0 mm 0 W/m2
06:46 7.1 °C 6.7 °C 1030.4 hPa NW 5.0 km/h 11.1 km/h 97% 0.0 mm 0 W/m2
06:51 7.1 °C 6.7 °C 1030.4 hPa NNW 5.0 km/h 9.7 km/h 97% 0.0 mm 0 W/m2
06:56 7.1 °C 6.7 °C 1030.4 hPa NNW 5.0 km/h 9.7 km/h 97% 0.0 mm 0 W/m2
07:01 7.1 °C 6.7 °C 1030.4 hPa NNW 5.0 km/h 9.7 km/h 97% 0.0 mm 0 W/m2
07:06 7.1 °C 6.7 °C 1030.4 hPa NNW 3.5 km/h 9.7 km/h 97% 0.0 mm 0 W/m2
07:11 7.0 °C 6.6 °C 1030.4 hPa NNW 5.0 km/h 8.7 km/h 97% 0.0 mm 0 W/m2
07:16 7.0 °C 6.6 °C 1030.4 hPa NNW 6.1 km/h 8.7 km/h 97% 0.0 mm 0 W/m2
07:21 7.0 °C 6.6 °C 1030.4 hPa NNW 9.7 km/h 13.4 km/h 97% 0.0 mm 0 W/m2
07:26 7.1 °C 6.7 °C 1030.4 hPa NW 9.7 km/h 13.4 km/h 97% 0.0 mm 0 W/m2
07:31 7.1 °C 6.7 °C 1030.7 hPa NW 6.1 km/h 13.4 km/h 97% 0.0 mm 0 W/m2
07:36 7.1 °C 6.7 °C 1030.4 hPa NW 7.2 km/h 12.2 km/h 97% 0.0 mm 1 W/m2
07:41 7.2 °C 6.8 °C 1030.4 hPa NW 8.7 km/h 12.2 km/h 97% 0.0 mm 3 W/m2
07:46 7.2 °C 6.8 °C 1030.7 hPa NW 8.7 km/h 12.2 km/h 97% 0.0 mm 4 W/m2
07:51 7.3 °C 6.8 °C 1030.7 hPa NW 6.1 km/h 12.2 km/h 97% 0.0 mm 6 W/m2
07:56 7.4 °C 6.9 °C 1030.7 hPa NW 6.1 km/h 12.2 km/h 97% 0.0 mm 11 W/m2
08:01 7.5 °C 7.1 °C 1030.7 hPa NW 6.1 km/h 11.1 km/h 97% 0.0 mm 18 W/m2
08:06 7.6 °C 7.2 °C 1030.7 hPa NW 5.0 km/h 11.1 km/h 97% 0.0 mm 24 W/m2
08:11 7.8 °C 7.3 °C 1030.7 hPa NNW 5.0 km/h 11.1 km/h 97% 0.0 mm 62 W/m2
08:16 8.2 °C 8.1 °C 1030.7 hPa NNW 6.1 km/h 11.1 km/h 99% 0.0 mm 40 W/m2
08:21 8.2 °C 8.1 °C 1031.0 hPa NNW 6.1 km/h 9.7 km/h 99% 0.0 mm 51 W/m2
08:26 8.2 °C 8.1 °C 1031.0 hPa NNW 2.6 km/h 9.7 km/h 99% 0.0 mm 59 W/m2
08:31 8.4 °C 8.3 °C 1031.0 hPa NNW 7.2 km/h 11.1 km/h 99% 0.0 mm 59 W/m2
08:36 8.4 °C 8.3 °C 1031.0 hPa NNW 6.1 km/h 11.1 km/h 99% 0.0 mm 81 W/m2
08:41 8.5 °C 8.3 °C 1031.0 hPa NNW 6.1 km/h 11.1 km/h 99% 0.0 mm 82 W/m2
08:46 8.7 °C 8.6 °C 1031.0 hPa NNW 8.7 km/h 12.2 km/h 99% 0.0 mm 108 W/m2
08:51 8.9 °C 8.8 °C 1031.0 hPa NNW 6.1 km/h 12.2 km/h 99% 0.0 mm 85 W/m2
08:56 8.8 °C 8.7 °C 1031.0 hPa NNW 6.1 km/h 12.2 km/h 99% 0.0 mm 95 W/m2
09:01 8.9 °C 8.8 °C 1031.0 hPa NNW 7.2 km/h 12.2 km/h 99% 0.0 mm 88 W/m2
09:06 9.0 °C 8.8 °C 1031.0 hPa NW 6.1 km/h 11.1 km/h 99% 0.0 mm 77 W/m2
09:11 8.9 °C 8.8 °C 1031.0 hPa NNW 7.2 km/h 14.8 km/h 99% 0.0 mm 135 W/m2
09:16 9.2 °C 9.1 °C 1031.0 hPa NNW 5.0 km/h 14.8 km/h 99% 0.0 mm 79 W/m2
09:21 9.5 °C 9.3 °C 1031.0 hPa NNW 11.1 km/h 14.8 km/h 99% 0.0 mm 218 W/m2
09:26 10.1 °C 9.8 °C 1031.0 hPa NNW 6.1 km/h 14.8 km/h 98% 0.0 mm 228 W/m2
09:31 10.7 °C 10.1 °C 1031.0 hPa NW 9.7 km/h 12.2 km/h 96% 0.0 mm 252 W/m2
09:36 10.9 °C 10.0 °C 1031.0 hPa NW 9.7 km/h 13.4 km/h 94% 0.0 mm 137 W/m2
09:41 10.7 °C 9.6 °C 1031.0 hPa NW 5.0 km/h 13.4 km/h 93% 0.0 mm 108 W/m2
09:46 10.6 °C 9.5 °C 1031.4 hPa NNW 7.2 km/h 12.2 km/h 93% 0.0 mm 99 W/m2
09:51 10.7 °C 9.6 °C 1031.0 hPa NNW 5.0 km/h 12.2 km/h 93% 0.0 mm 135 W/m2
09:56 11.3 °C 10.2 °C 1031.0 hPa NNW 7.2 km/h 11.1 km/h 93% 0.0 mm 107 W/m2
10:01 11.6 °C 10.3 °C 1031.4 hPa NNW 7.2 km/h 13.4 km/h 92% 0.0 mm 119 W/m2
10:06 11.5 °C 10.1 °C 1031.4 hPa NNW 11.1 km/h 13.4 km/h 91% 0.0 mm 185 W/m2
10:11 11.7 °C 10.1 °C 1031.0 hPa NW 7.2 km/h 13.4 km/h 90% 0.0 mm 133 W/m2
10:16 11.8 °C 10.2 °C 1031.0 hPa NW 7.2 km/h 13.4 km/h 90% 0.0 mm 134 W/m2
10:21 11.8 °C 10.1 °C 1031.0 hPa NW 1.1 km/h 13.4 km/h 89% 0.0 mm 125 W/m2
10:26 12.2 °C 10.3 °C 1031.0 hPa NNW 3.5 km/h 12.2 km/h 88% 0.0 mm 115 W/m2
10:31 12.6 °C 10.5 °C 1031.0 hPa NNW 6.1 km/h 11.1 km/h 87% 0.0 mm 97 W/m2
10:36 13.1 °C 10.8 °C 1031.0 hPa NW 7.2 km/h 11.1 km/h 86% 0.0 mm 109 W/m2
10:41 13.3 °C 10.8 °C 1031.0 hPa NW 6.1 km/h 8.7 km/h 85% 0.0 mm 116 W/m2
10:46 13.3 °C 10.8 °C 1031.0 hPa NW 2.6 km/h 8.7 km/h 85% 0.0 mm 125 W/m2
10:51 13.9 °C 11.4 °C 1031.0 hPa NW 3.5 km/h 8.7 km/h 85% 0.0 mm 112 W/m2
10:56 14.5 °C 11.7 °C 1031.0 hPa NW 3.5 km/h 7.2 km/h 83% 0.0 mm 136 W/m2
11:01 14.5 °C 11.3 °C 1031.0 hPa NNW 6.1 km/h 11.1 km/h 81% 0.0 mm 172 W/m2
11:06 14.8 °C 11.4 °C 1031.0 hPa NNW 6.1 km/h 12.2 km/h 80% 0.0 mm 188 W/m2
11:11 15.3 °C 11.7 °C 1031.0 hPa NW 5.0 km/h 12.2 km/h 79% 0.0 mm 176 W/m2
11:16 15.9 °C 11.9 °C 1031.0 hPa NNW 7.2 km/h 11.1 km/h 77% 0.0 mm 152 W/m2
11:21 16.1 °C 11.7 °C 1030.7 hPa NNW 6.1 km/h 11.1 km/h 75% 0.0 mm 108 W/m2
11:26 16.4 °C 11.6 °C 1031.0 hPa NNW 5.0 km/h 9.7 km/h 73% 0.0 mm 99 W/m2
11:31 16.9 °C 10.9 °C 1031.0 hPa NNE 6.1 km/h 11.1 km/h 68% 0.0 mm 104 W/m2
11:36 16.9 °C 10.5 °C 1030.7 hPa NNE 5.0 km/h 12.2 km/h 66% 0.0 mm 116 W/m2
11:41 17.0 °C 10.2 °C 1030.7 hPa North 5.0 km/h 15.8 km/h 64% 0.0 mm 89 W/m2
11:46 17.4 °C 10.8 °C 1030.4 hPa NNE 7.2 km/h 15.8 km/h 65% 0.0 mm 68 W/m2
11:51 17.0 °C 9.9 °C 1030.4 hPa NNE 5.0 km/h 12.2 km/h 63% 0.0 mm 65 W/m2
11:56 17.1 °C 10.2 °C 1030.4 hPa NE 8.7 km/h 13.4 km/h 64% 0.0 mm 77 W/m2
12:01 17.1 °C 10.2 °C 1030.4 hPa NE 5.0 km/h 13.4 km/h 64% 0.0 mm 91 W/m2
12:06 17.5 °C 10.4 °C 1030.4 hPa NE 8.7 km/h 15.8 km/h 63% 0.0 mm 80 W/m2
12:11 17.7 °C 10.6 °C 1030.0 hPa NNE 6.1 km/h 15.8 km/h 63% 0.0 mm 75 W/m2
12:16 17.8 °C 10.4 °C 1030.0 hPa NNE 6.1 km/h 13.4 km/h 62% 0.0 mm 64 W/m2
12:21 17.8 °C 10.4 °C 1030.0 hPa NE 6.1 km/h 15.8 km/h 62% 0.0 mm 60 W/m2
12:26 17.8 °C 10.4 °C 1030.0 hPa NE 8.7 km/h 17.2 km/h 62% 0.0 mm 58 W/m2
12:31 18.1 °C 10.7 °C 1029.7 hPa NE 11.1 km/h 17.2 km/h 62% 0.0 mm 58 W/m2
12:36 18.1 °C 10.7 °C 1029.7 hPa NE 8.7 km/h 14.8 km/h 62% 0.0 mm 58 W/m2
12:41 17.9 °C 10.5 °C 1029.7 hPa NE 7.2 km/h 15.8 km/h 62% 0.0 mm 60 W/m2
12:46 18.1 °C 10.2 °C 1029.7 hPa NE 5.0 km/h 15.8 km/h 60% 0.0 mm 62 W/m2
12:51 18.2 °C 10.3 °C 1029.7 hPa NNE 7.2 km/h 14.8 km/h 60% 0.0 mm 63 W/m2
12:56 18.4 °C 10.5 °C 1029.7 hPa NNE 8.7 km/h 13.4 km/h 60% 0.0 mm 66 W/m2
13:01 18.6 °C 10.7 °C 1029.7 hPa NE 6.1 km/h 13.4 km/h 60% 0.0 mm 68 W/m2
13:06 18.7 °C 10.6 °C 1029.3 hPa NE 7.2 km/h 18.3 km/h 59% 0.0 mm 71 W/m2
13:11 18.2 °C 10.1 °C 1029.0 hPa NE 11.1 km/h 18.3 km/h 59% 0.0 mm 65 W/m2
13:16 17.6 °C 10.0 °C 1029.3 hPa NNE 5.0 km/h 15.8 km/h 61% 0.0 mm 74 W/m2
13:21 18.4 °C 10.8 °C 1029.0 hPa NNE 9.7 km/h 15.8 km/h 61% 0.0 mm 62 W/m2
13:26 18.1 °C 10.2 °C 1029.0 hPa NE 3.5 km/h 13.4 km/h 60% 0.0 mm 80 W/m2
13:31 18.4 °C 10.5 °C 1029.0 hPa NE 8.7 km/h 13.4 km/h 60% 0.0 mm 86 W/m2
13:36 18.0 °C 10.1 °C 1029.0 hPa NE 8.7 km/h 17.2 km/h 60% 0.0 mm 89 W/m2
13:41 18.0 °C 10.1 °C 1029.0 hPa NNE 7.2 km/h 17.2 km/h 60% 0.0 mm 84 W/m2
13:46 18.3 °C 10.7 °C 1029.0 hPa NNE 12.2 km/h 17.2 km/h 61% 0.0 mm 94 W/m2
13:51 18.1 °C 10.2 °C 1028.7 hPa North 7.2 km/h 18.3 km/h 60% 0.0 mm 125 W/m2
13:56 18.0 °C 10.4 °C 1028.7 hPa NNE 8.7 km/h 18.3 km/h 61% 0.0 mm 194 W/m2
14:01 18.1 °C 10.4 °C 1028.7 hPa NNE 5.0 km/h 14.8 km/h 61% 0.0 mm 233 W/m2
14:06 17.9 °C 10.3 °C 1028.7 hPa NE 6.1 km/h 19.5 km/h 61% 0.0 mm 256 W/m2
14:11 17.7 °C 10.3 °C 1028.7 hPa NE 9.7 km/h 19.5 km/h 62% 0.0 mm 214 W/m2
14:16 17.4 °C 10.3 °C 1028.7 hPa NE 6.1 km/h 18.3 km/h 63% 0.0 mm 209 W/m2
14:21 17.2 °C 10.1 °C 1028.7 hPa NE 12.2 km/h 18.3 km/h 63% 0.0 mm 132 W/m2
14:26 17.1 °C 10.2 °C 1028.7 hPa NE 6.1 km/h 18.3 km/h 64% 0.0 mm 230 W/m2
14:31 17.6 °C 10.7 °C 1028.7 hPa NE 6.1 km/h 17.2 km/h 64% 0.0 mm 250 W/m2
14:36 17.5 °C 10.4 °C 1028.7 hPa NE 6.1 km/h 14.8 km/h 63% 0.0 mm 247 W/m2
14:41 17.6 °C 10.5 °C 1028.7 hPa NE 5.0 km/h 14.8 km/h 63% 0.0 mm 108 W/m2
14:46 17.3 °C 10.2 °C 1028.7 hPa NE 6.1 km/h 12.2 km/h 63% 0.0 mm 267 W/m2
14:51 17.9 °C 10.5 °C 1028.7 hPa NE 9.7 km/h 14.8 km/h 62% 0.0 mm 262 W/m2
14:56 18.2 °C 10.3 °C 1028.7 hPa NE 7.2 km/h 17.2 km/h 60% 0.0 mm 242 W/m2
15:02 18.2 °C 10.3 °C 1028.7 hPa NE 7.2 km/h 17.2 km/h 60% 0.0 mm 209 W/m2
15:07 18.3 °C 10.2 °C 1028.7 hPa NE 6.1 km/h 15.8 km/h 59% 0.0 mm 192 W/m2
15:12 18.1 °C 10.2 °C 1028.7 hPa NE 9.7 km/h 17.2 km/h 60% 0.0 mm 175 W/m2
15:17 17.8 °C 10.2 °C 1028.3 hPa ENE 3.5 km/h 17.2 km/h 61% 0.0 mm 146 W/m2
15:22 18.1 °C 9.9 °C 1028.7 hPa NE 3.5 km/h 17.2 km/h 59% 0.0 mm 135 W/m2
15:27 17.4 °C 9.8 °C 1028.7 hPa NNE 7.2 km/h 15.8 km/h 61% 0.0 mm 100 W/m2
15:32 16.9 °C 9.8 °C 1028.7 hPa NE 8.7 km/h 15.8 km/h 63% 0.0 mm 120 W/m2
15:37 17.1 °C 9.8 °C 1028.7 hPa NE 6.1 km/h 17.2 km/h 62% 0.0 mm 117 W/m2
15:42 17.2 °C 9.9 °C 1028.7 hPa NE 6.1 km/h 17.2 km/h 62% 0.0 mm 109 W/m2
15:47 17.4 °C 10.1 °C 1028.7 hPa NE 12.2 km/h 15.8 km/h 62% 0.0 mm 99 W/m2
15:53 16.7 °C 9.6 °C 1028.3 hPa NE 5.0 km/h 14.8 km/h 63% 0.0 mm 47 W/m2
15:58 15.9 °C 9.6 °C 1028.3 hPa NNE 5.0 km/h 14.8 km/h 66% 0.0 mm 51 W/m2
16:03 16.4 °C 10.1 °C 1028.3 hPa NNE 5.0 km/h 12.2 km/h 66% 0.0 mm 39 W/m2
16:08 16.0 °C 9.4 °C 1028.7 hPa NNE 2.6 km/h 9.7 km/h 65% 0.0 mm 31 W/m2
16:13 15.5 °C 9.4 °C 1028.3 hPa North 5.0 km/h 18.3 km/h 67% 0.0 mm 34 W/m2
16:18 15.5 °C 9.6 °C 1028.7 hPa NNE 3.5 km/h 18.3 km/h 68% 0.0 mm 26 W/m2
16:23 15.5 °C 9.8 °C 1028.7 hPa NE 5.0 km/h 13.4 km/h 69% 0.0 mm 23 W/m2
16:28 15.5 °C 9.6 °C 1028.3 hPa NE 5.0 km/h 9.7 km/h 68% 0.0 mm 21 W/m2
16:33 15.3 °C 9.4 °C 1028.3 hPa NNE 2.6 km/h 14.8 km/h 68% 0.0 mm 11 W/m2
16:38 14.8 °C 9.6 °C 1028.3 hPa NNE 3.5 km/h 14.8 km/h 71% 0.0 mm 8 W/m2
16:43 14.4 °C 9.4 °C 1028.7 hPa NNE 5.0 km/h 14.8 km/h 72% 0.0 mm 5 W/m2
16:48 14.2 °C 9.4 °C 1028.7 hPa NNE 6.1 km/h 9.7 km/h 73% 0.0 mm 4 W/m2
16:53 14.0 °C 9.4 °C 1028.7 hPa North 5.0 km/h 11.1 km/h 74% 0.0 mm 1 W/m2
16:58 13.8 °C 9.4 °C 1028.3 hPa North 2.6 km/h 11.1 km/h 75% 0.0 mm 0 W/m2
17:03 13.6 °C 9.4 °C 1028.7 hPa North 1.1 km/h 5.0 km/h 76% 0.0 mm 0 W/m2
17:08 13.3 °C 9.2 °C 1028.7 hPa North 1.1 km/h 5.0 km/h 76% 0.0 mm 0 W/m2
17:13 13.1 °C 9.2 °C 1028.7 hPa North 3.5 km/h 5.0 km/h 77% 0.0 mm 0 W/m2
17:18 13.0 °C 9.1 °C 1028.7 hPa North 2.6 km/h 5.0 km/h 77% 0.0 mm 0 W/m2
17:23 12.9 °C 9.3 °C 1028.7 hPa NNW 2.6 km/h 3.5 km/h 79% 0.0 mm 0 W/m2
17:28 12.8 °C 9.3 °C 1028.7 hPa NW 2.6 km/h 5.0 km/h 79% 0.0 mm 0 W/m2
17:33 12.6 °C 9.1 °C 1029.0 hPa NW 1.1 km/h 5.0 km/h 79% 0.0 mm 0 W/m2
17:51 11.8 °C 9.0 °C 1029.0 hPa NW 3.5 km/h 5.0 km/h 83% 0.0 mm 0 W/m2
17:56 11.7 °C 9.1 °C 1029.0 hPa NW 1.1 km/h 5.0 km/h 84% 0.0 mm 0 W/m2
18:01 11.6 °C 9.0 °C 1029.0 hPa NNW 3.5 km/h 5.0 km/h 84% 0.0 mm 0 W/m2
18:06 11.6 °C 9.0 °C 1029.0 hPa North 1.1 km/h 5.0 km/h 84% 0.0 mm 0 W/m2
18:11 11.5 °C 8.9 °C 1029.0 hPa North 1.1 km/h 5.0 km/h 84% 0.0 mm 0 W/m2
18:16 11.5 °C 8.9 °C 1029.0 hPa North 1.1 km/h 5.0 km/h 84% 0.0 mm 0 W/m2
18:20 11.3 °C 8.7 °C 1029.0 hPa Calm   3.5 km/h 84% 0.0 mm 0 W/m2
18:26 11.1 °C 8.5 °C 1029.0 hPa Calm   2.6 km/h 84% 0.0 mm 0 W/m2
18:31 11.0 °C 8.4 °C 1029.3 hPa NW 1.1 km/h 2.6 km/h 84% 0.0 mm 0 W/m2
18:36 10.9 °C 8.7 °C 1029.3 hPa NW 1.1 km/h 2.6 km/h 86% 0.0 mm 0 W/m2
18:41 10.9 °C 8.7 °C 1029.0 hPa WNW 2.6 km/h 3.5 km/h 86% 0.0 mm 0 W/m2
18:46 10.8 °C 8.6 °C 1029.0 hPa WNW 1.1 km/h 3.5 km/h 86% 0.0 mm 0 W/m2
18:51 10.7 °C 8.6 °C 1029.3 hPa WNW 1.1 km/h 5.0 km/h 87% 0.0 mm 0 W/m2
18:56 10.7 °C 8.6 °C 1029.3 hPa NW 1.1 km/h 5.0 km/h 87% 0.0 mm 0 W/m2
19:01 10.6 °C 8.6 °C 1029.3 hPa Calm   3.5 km/h 87% 0.0 mm 0 W/m2
19:06 10.3 °C 8.2 °C 1029.3 hPa Calm   3.5 km/h 87% 0.0 mm 0 W/m2
19:10 10.1 °C 8.1 °C 1029.3 hPa NW 1.1 km/h 2.6 km/h 87% 0.0 mm 0 W/m2
19:16 10.1 °C 8.1 °C 1029.3 hPa NW 1.1 km/h 3.5 km/h 87% 0.0 mm 0 W/m2
19:21 10.2 °C 8.3 °C 1029.3 hPa Calm   3.5 km/h 88% 0.0 mm 0 W/m2
19:26 10.1 °C 8.4 °C 1029.0 hPa Calm   3.5 km/h 89% 0.0 mm 0 W/m2
19:31 10.0 °C 8.3 °C 1029.3 hPa Calm   2.6 km/h 89% 0.0 mm 0 W/m2
19:36 9.8 °C 8.2 °C 1029.0 hPa Calm   1.1 km/h 90% 0.0 mm 0 W/m2
19:41 9.8 °C 8.4 °C 1029.0 hPa North 2.6 km/h 3.5 km/h 91% 0.0 mm 0 W/m2
19:46 9.7 °C 8.3 °C 1029.0 hPa North 1.1 km/h 3.5 km/h 91% 0.0 mm 0 W/m2
19:51 9.6 °C 8.2 °C 1029.0 hPa North 1.1 km/h 3.5 km/h 91% 0.0 mm 0 W/m2
19:56 9.6 °C 8.4 °C 1029.3 hPa NNW 3.5 km/h 5.0 km/h 92% 0.0 mm 0 W/m2
20:01 9.8 °C 8.7 °C 1029.3 hPa NNW 2.6 km/h 6.1 km/h 93% 0.0 mm 0 W/m2
20:06 9.9 °C 8.8 °C 1029.3 hPa NNW 5.0 km/h 7.2 km/h 93% 0.0 mm 0 W/m2
20:11 10.0 °C 8.8 °C 1029.3 hPa NNW 3.5 km/h 7.2 km/h 92% 0.0 mm 0 W/m2
20:16 10.0 °C 8.6 °C 1029.3 hPa NNW 3.5 km/h 7.2 km/h 91% 0.0 mm 0 W/m2
20:21 10.1 °C 8.7 °C 1029.3 hPa North 5.0 km/h 7.2 km/h 91% 0.0 mm 0 W/m2
20:26 10.1 °C 8.7 °C 1029.3 hPa North 3.5 km/h 8.7 km/h 91% 0.0 mm 0 W/m2
20:31 10.1 °C 8.7 °C 1029.3 hPa NNW 3.5 km/h 8.7 km/h 91% 0.0 mm 0 W/m2
20:36 10.0 °C 8.6 °C 1029.3 hPa NNW 5.0 km/h 8.7 km/h 91% 0.0 mm 0 W/m2
20:41 10.0 °C 8.6 °C 1029.0 hPa NNW 5.0 km/h 8.7 km/h 91% 0.0 mm 0 W/m2
20:47 10.0 °C 8.6 °C 1029.0 hPa North 5.0 km/h 8.7 km/h 91% 0.0 mm 0 W/m2
20:52 10.0 °C 8.6 °C 1029.0 hPa North 5.0 km/h 8.7 km/h 91% 0.0 mm 0 W/m2
20:56 10.0 °C 8.6 °C 1029.0 hPa North 5.0 km/h 8.7 km/h 91% 0.0 mm 0 W/m2
21:02 10.0 °C 8.6 °C 1029.0 hPa North 6.1 km/h 12.2 km/h 91% 0.0 mm 0 W/m2
21:07 10.0 °C 8.4 °C 1029.0 hPa North 6.1 km/h 12.2 km/h 90% 0.0 mm 0 W/m2
21:12 10.1 °C 8.6 °C 1029.3 hPa North 5.0 km/h 12.2 km/h 90% 0.0 mm 0 W/m2
21:17 10.2 °C 8.6 °C 1029.3 hPa NNW 6.1 km/h 12.2 km/h 90% 0.0 mm 0 W/m2
21:22 10.1 °C 8.4 °C 1029.3 hPa NNW 6.1 km/h 12.2 km/h 89% 0.0 mm 0 W/m2
21:27 9.9 °C 8.5 °C 1029.0 hPa NNW 5.0 km/h 9.7 km/h 91% 0.0 mm 0 W/m2
21:32 9.8 °C 8.4 °C 1029.3 hPa NNW 8.7 km/h 11.1 km/h 91% 0.0 mm 0 W/m2
21:36 9.8 °C 8.4 °C 1029.0 hPa NW 5.0 km/h 11.1 km/h 91% 0.0 mm 0 W/m2
21:41 9.6 °C 8.2 °C 1029.0 hPa NNW 5.0 km/h 11.1 km/h 91% 0.0 mm 0 W/m2
21:47 9.6 °C 8.4 °C 1028.7 hPa NW 5.0 km/h 9.7 km/h 92% 0.0 mm 0 W/m2
21:52 9.4 °C 8.2 °C 1029.0 hPa NNW 5.0 km/h 9.7 km/h 92% 0.0 mm 0 W/m2
21:57 9.2 °C 7.9 °C 1029.0 hPa North 3.5 km/h 9.7 km/h 92% 0.0 mm 0 W/m2
22:01 9.1 °C 8.1 °C 1028.7 hPa North 5.0 km/h 7.2 km/h 93% 0.0 mm 0 W/m2
22:07 9.0 °C 7.9 °C 1028.7 hPa North 3.5 km/h 8.7 km/h 93% 0.0 mm 0 W/m2
22:12 8.9 °C 8.2 °C 1028.7 hPa NNW 3.5 km/h 8.7 km/h 95% 0.0 mm 0 W/m2
22:16 8.8 °C 8.1 °C 1028.7 hPa NNW 5.0 km/h 7.2 km/h 95% 0.0 mm 0 W/m2
22:22 8.9 °C 8.2 °C 1028.7 hPa NW 5.0 km/h 8.7 km/h 95% 0.0 mm 0 W/m2
22:26 9.0 °C 8.1 °C 1028.7 hPa NW 6.1 km/h 8.7 km/h 94% 0.0 mm 0 W/m2
22:31 9.0 °C 8.1 °C 1028.7 hPa NW 5.0 km/h 8.7 km/h 94% 0.0 mm 0 W/m2
22:37 9.1 °C 8.2 °C 1028.7 hPa NW 3.5 km/h 8.7 km/h 94% 0.0 mm 0 W/m2
22:42 9.1 °C 8.2 °C 1028.7 hPa NW 6.1 km/h 8.7 km/h 94% 0.0 mm 0 W/m2
22:46 9.1 °C 8.2 °C 1028.7 hPa NW 7.2 km/h 9.7 km/h 94% 0.0 mm 0 W/m2
22:51 9.2 °C 8.3 °C 1028.7 hPa NNW 5.0 km/h 9.7 km/h 94% 0.0 mm 0 W/m2
22:57 9.2 °C 8.3 °C 1028.7 hPa NNW 3.5 km/h 9.7 km/h 94% 0.0 mm 0 W/m2
23:02 9.1 °C 8.2 °C 1028.7 hPa NNW 3.5 km/h 7.2 km/h 94% 0.0 mm 0 W/m2
23:07 9.1 °C 8.2 °C 1028.7 hPa NNW 5.0 km/h 7.2 km/h 94% 0.0 mm 0 W/m2
23:11 9.1 °C 8.2 °C 1028.7 hPa NNW 3.5 km/h 7.2 km/h 94% 0.0 mm 0 W/m2
23:17 9.1 °C 8.2 °C 1028.7 hPa NNW 5.0 km/h 7.2 km/h 94% 0.0 mm 0 W/m2
23:22 9.1 °C 8.2 °C 1028.7 hPa NNW 6.1 km/h 9.7 km/h 94% 0.0 mm 0 W/m2
23:26 9.2 °C 8.3 °C 1028.3 hPa NNW 5.0 km/h 11.1 km/h 94% 0.0 mm 0 W/m2
23:32 9.2 °C 8.3 °C 1028.3 hPa NNW 5.0 km/h 11.1 km/h 94% 0.0 mm 0 W/m2
23:36 9.2 °C 8.3 °C 1028.7 hPa NNW 3.5 km/h 8.7 km/h 94% 0.0 mm 0 W/m2
23:41 9.4 °C 8.5 °C 1028.7 hPa NNW 5.0 km/h 8.7 km/h 94% 0.0 mm 0 W/m2
23:46 9.6 °C 8.7 °C 1028.3 hPa NNW 7.2 km/h 11.1 km/h 94% 0.0 mm 0 W/m2
23:52 9.9 °C 8.8 °C 1028.3 hPa NNW 5.0 km/h 12.2 km/h 93% 0.0 mm 0 W/m2
23:56 10.0 °C 8.6 °C 1028.3 hPa NNW 6.1 km/h 12.2 km/h 91% 0.0 mm 0 W/m2
Northern Hawkes Bay. New Zealand Historic Data
Compliments of Weather Underground - 2 mb